Time;durP1;ratioP1;P1;durP2;ratioP2;P2;SDS_P1;SDS_P2;PMS_P1;PMS_P2;Temp;Humidity;BMP_temperature;BMP_pressure;BME280_temperature;BME280_humidity;BME280_pressure;Samples;Min_cycle;Max_cycle;Signal;HPM_P1;HPM_P2
2022/10/23 00:00:07;;;;;;;422.13;262.02;;;;;;;11.59;73.98;99959.91;331410;29;2396;-70
2022/10/23 00:00:18;;;;;;;423.60;269.20;;;;;;;11.60;74.09;99960.75;331402;29;6111;-70
2022/10/23 00:00:28;;;;;;;420.33;270.27;;;;;;;11.60;73.92;99966.00;330565;29;2715;-70
2022/10/23 00:00:39;;;;;;;418.88;265.98;;;;;;;11.60;74.06;99960.75;327065;30;1559;-70
2022/10/23 00:00:49;;;;;;;416.70;259.63;;;;;;;11.61;74.03;99962.47;328321;29;2393;-70
2022/10/23 00:01:00;;;;;;;417.33;254.93;;;;;;;11.64;74.78;99963.19;325034;30;2408;-70
2022/10/23 00:01:20;;;;;;;415.33;258.50;;;;;;;11.64;74.64;99957.94;325192;30;2212;-70
2022/10/23 00:01:33;;;;;;;416.85;276.40;;;;;;;11.65;74.25;99964.91;324195;30;2206;-70
2022/10/23 00:01:43;;;;;;;417.75;275.88;;;;;;;11.62;74.19;99970.25;325739;30;1285;-70
2022/10/23 00:01:54;;;;;;;415.52;266.48;;;;;;;11.62;74.54;99966.78;325757;30;842;-70
2022/10/23 00:02:04;;;;;;;418.20;264.17;;;;;;;11.61;75.16;99965.94;324201;30;1311;-70
2022/10/23 00:02:15;;;;;;;418.27;263.63;;;;;;;11.59;74.68;99965.16;322279;30;2131;-70
2022/10/23 00:02:25;;;;;;;417.23;259.58;;;;;;;11.58;74.94;99963.44;319725;30;2568;-70
2022/10/23 00:02:35;;;;;;;412.93;254.77;;;;;;;11.58;74.42;99963.44;320925;30;937;-70
2022/10/23 00:02:51;;;;;;;415.08;261.40;;;;;;;11.57;74.82;99966.97;317079;30;2896;-70
2022/10/23 00:03:02;;;;;;;418.08;262.25;;;;;;;11.58;74.59;99968.69;316630;30;3107;-70
2022/10/23 00:03:12;;;;;;;418.97;259.23;;;;;;;11.58;74.27;99965.19;313297;31;3151;-70
2022/10/23 00:03:22;;;;;;;420.42;251.07;;;;;;;11.58;74.13;99967.81;312325;31;1994;-70
2022/10/23 00:03:33;;;;;;;419.17;254.63;;;;;;;11.59;74.26;99973.00;312837;31;2946;-70
2022/10/23 00:03:43;;;;;;;418.75;253.77;;;;;;;11.58;74.35;99963.44;312799;31;3097;-70
2022/10/23 00:04:05;;;;;;;420.33;267.27;;;;;;;11.58;74.30;99963.44;311840;31;1222;-70
2022/10/23 00:04:18;;;;;;;425.48;278.98;;;;;;;11.58;74.22;99967.81;311525;31;2410;-70
2022/10/23 00:04:28;;;;;;;420.20;272.50;;;;;;;11.57;74.36;99964.34;311220;31;2982;-70
2022/10/23 00:04:38;;;;;;;418.93;266.87;;;;;;;11.56;74.18;99964.41;311840;31;1485;-70
2022/10/23 00:04:50;;;;;;;421.73;266.27;;;;;;;11.57;73.52;99963.50;308686;31;3464;-70
2022/10/23 00:05:00;;;;;;;421.88;263.10;;;;;;;11.57;74.46;99969.59;309178;31;4086;-70
2022/10/23 00:05:11;;;;;;;419.48;265.55;;;;;;;11.56;74.52;99964.41;306421;31;4376;-70
2022/10/23 00:05:21;;;;;;;418.20;267.47;;;;;;;11.55;74.51;99957.44;309132;31;1491;-70
2022/10/23 00:05:32;;;;;;;417.42;269.50;;;;;;;11.56;74.54;99965.25;308580;31;4519;-70
2022/10/23 00:05:42;;;;;;;416.27;265.13;;;;;;;11.57;74.49;99964.34;307447;31;5184;-70
2022/10/23 00:05:52;;;;;;;416.60;266.70;;;;;;;11.57;74.27;99961.72;305633;32;1690;-70
2022/10/23 00:06:04;;;;;;;417.67;266.80;;;;;;;11.59;74.19;99954.66;306553;32;4092;-70
2022/10/23 00:06:14;;;;;;;418.05;263.05;;;;;;;11.58;74.78;99963.44;306669;31;2497;-70
2022/10/23 00:06:25;;;;;;;417.83;260.13;;;;;;;11.58;74.39;99958.19;308169;32;1633;-70
2022/10/23 00:06:35;;;;;;;416.30;255.73;;;;;;;11.58;74.20;99957.34;301167;32;886;-70
2022/10/23 00:06:46;;;;;;;419.07;257.20;;;;;;;11.58;74.26;99963.44;299552;32;4876;-70
2022/10/23 00:06:56;;;;;;;419.98;260.70;;;;;;;11.57;74.32;99959.09;296170;33;5190;-70
2022/10/23 00:07:07;;;;;;;419.70;262.60;;;;;;;11.58;74.13;99957.34;295935;33;1452;-70
2022/10/23 00:07:17;;;;;;;415.80;258.30;;;;;;;11.58;74.29;99963.44;295670;33;5724;-70
2022/10/23 00:07:28;;;;;;;415.73;250.20;;;;;;;11.57;74.34;99961.72;295554;32;6537;-70
2022/10/23 00:07:38;;;;;;;418.92;257.75;;;;;;;11.58;74.25;99960.81;299100;33;1176;-70
2022/10/23 00:07:52;;;;;;;421.37;261.00;;;;;;;11.57;74.51;99959.09;298942;32;6230;-70
2022/10/23 00:08:02;;;;;;;419.25;271.15;;;;;;;11.57;74.38;99966.97;293617;33;6162;-71
2022/10/23 00:08:12;;;;;;;416.90;265.30;;;;;;;11.52;74.31;99963.66;292069;33;5762;-71
2022/10/23 00:08:23;;;;;;;416.30;261.87;;;;;;;11.49;74.44;99958.53;294977;33;1246;-71
2022/10/23 00:08:33;;;;;;;415.27;253.00;;;;;;;11.47;74.79;99960.38;295866;33;4341;-71
2022/10/23 00:08:45;;;;;;;417.30;258.38;;;;;;;11.47;74.47;99967.38;293112;33;5103;-70
2022/10/23 00:08:56;;;;;;;417.75;263.08;;;;;;;11.45;74.48;99967.44;287425;33;6583;-70
2022/10/23 00:09:06;;;;;;;418.13;265.13;;;;;;;11.46;74.50;99963.91;287093;34;6742;-70
2022/10/23 00:09:19;;;;;;;421.48;270.95;;;;;;;11.50;74.55;99964.66;287124;34;6827;-71
2022/10/23 00:09:30;;;;;;;420.85;277.02;;;;;;;11.50;74.92;99962.03;287405;33;8406;-71
2022/10/23 00:09:40;;;;;;;420.63;279.67;;;;;;;11.49;75.02;99963.78;287730;34;9148;-71
2022/10/23 00:09:51;;;;;;;419.93;276.23;;;;;;;11.50;75.07;99962.88;284752;34;1576;-71
2022/10/23 00:10:01;;;;;;;420.00;270.25;;;;;;;11.51;74.79;99964.59;280177;34;9036;-71
2022/10/23 00:10:12;;;;;;;418.33;265.03;;;;;;;11.51;74.61;99963.72;280433;34;9939;-71
2022/10/23 00:10:22;;;;;;;418.65;268.38;;;;;;;11.50;74.79;99965.50;280039;35;925;-71
2022/10/23 00:12:46;;;;;;;412.46;253.95;;;;;;;11.53;74.42;99960.13;2495762;27;20476;-71
2022/10/23 00:12:56;;;;;;;416.10;263.15;;;;;;;11.53;74.37;99957.50;353059;28;958;-71
2022/10/23 00:13:07;;;;;;;418.43;266.30;;;;;;;11.53;74.26;99965.38;350694;28;795;-70
2022/10/23 00:13:17;;;;;;;420.10;264.40;;;;;;;11.52;74.39;99958.44;347974;28;1278;-71
2022/10/23 00:13:27;;;;;;;421.37;268.23;;;;;;;11.52;74.40;99958.44;348914;28;871;-71
2022/10/23 00:13:38;;;;;;;422.23;270.33;;;;;;;11.53;73.89;99956.66;347639;28;843;-71
2022/10/23 00:13:48;;;;;;;421.50;276.08;;;;;;;11.52;74.52;99960.19;346369;28;1498;-71
2022/10/23 00:14:00;;;;;;;419.52;273.95;;;;;;;11.52;74.47;99966.28;347620;28;1659;-71
2022/10/23 00:14:10;;;;;;;421.50;268.17;;;;;;;11.51;74.72;99961.97;347481;28;1028;-71
2022/10/23 00:14:21;;;;;;;421.77;268.70;;;;;;;11.52;74.52;99962.81;348263;28;2022;-71
2022/10/23 00:14:32;;;;;;;423.45;270.52;;;;;;;11.51;74.62;99956.72;350048;28;886;-71
2022/10/23 00:14:42;;;;;;;422.17;275.67;;;;;;;11.50;74.64;99955.00;348544;28;1270;-71
2022/10/23 00:14:53;;;;;;;421.75;271.67;;;;;;;11.48;74.40;99956.84;348608;28;1832;-70
2022/10/23 00:15:03;;;;;;;420.13;276.27;;;;;;;11.48;74.56;99958.59;351577;28;2232;-70
2022/10/23 00:15:15;;;;;;;420.75;279.83;;;;;;;11.50;74.59;99949.78;346116;28;1360;-70
2022/10/23 00:15:26;;;;;;;419.65;278.70;;;;;;;11.50;74.49;99956.78;349933;28;2646;-70
2022/10/23 00:15:36;;;;;;;420.05;271.23;;;;;;;11.51;74.30;99951.47;350278;28;864;-70
2022/10/23 00:15:47;;;;;;;420.67;263.97;;;;;;;11.50;74.43;99952.38;348813;28;824;-70
2022/10/23 00:15:57;;;;;;;423.38;267.80;;;;;;;11.50;74.52;99955.00;348317;28;1875;-70
2022/10/23 00:16:07;;;;;;;421.47;262.27;;;;;;;11.50;74.45;99951.53;349896;28;1196;-70
2022/10/23 00:16:18;;;;;;;420.33;257.80;;;;;;;11.48;74.28;99951.59;347516;28;943;-70
2022/10/23 00:16:28;;;;;;;415.92;251.18;;;;;;;11.49;74.60;99952.44;348634;28;1334;-70
2022/10/23 00:16:39;;;;;;;416.80;263.63;;;;;;;11.49;74.77;99953.31;347277;28;1426;-70
2022/10/23 00:16:49;;;;;;;417.70;265.73;;;;;;;11.48;74.54;99946.34;348159;28;1662;-70
2022/10/23 00:17:00;;;;;;;423.30;269.33;;;;;;;11.47;74.67;99939.41;343298;28;1273;-70
2022/10/23 00:17:11;;;;;;;423.93;261.33;;;;;;;11.48;74.68;99946.34;346770;28;1468;-70
2022/10/23 00:17:21;;;;;;;423.02;266.48;;;;;;;11.49;74.80;99939.34;348824;28;980;-70
2022/10/23 00:17:33;;;;;;;419.83;266.02;;;;;;;11.49;74.59;99942.81;347482;28;1187;-70
2022/10/23 00:17:44;;;;;;;418.25;267.08;;;;;;;11.49;74.46;99941.97;347444;28;1286;-71
2022/10/23 00:17:54;;;;;;;419.63;267.67;;;;;;;11.51;74.81;99941.00;345948;28;4045;-71
2022/10/23 00:18:05;;;;;;;423.20;274.97;;;;;;;11.52;74.62;99941.84;343085;28;6127;-70
2022/10/23 00:18:15;;;;;;;423.00;278.08;;;;;;;11.53;74.61;99954.91;346771;28;6571;-70
2022/10/23 00:18:26;;;;;;;423.17;274.67;;;;;;;11.54;74.72;99946.13;346765;28;1929;-70
2022/10/23 00:18:36;;;;;;;420.07;269.53;;;;;;;11.52;74.87;99953.19;344287;28;6256;-70
2022/10/23 00:18:47;;;;;;;421.70;274.45;;;;;;;11.51;74.95;99946.22;344858;28;790;-70
2022/10/23 00:18:57;;;;;;;420.90;275.73;;;;;;;11.51;74.68;99946.22;346705;28;998;-70
2022/10/23 00:19:08;;;;;;;419.70;268.20;;;;;;;11.51;74.64;99945.38;346968;28;1133;-70
2022/10/23 00:19:18;;;;;;;418.75;260.45;;;;;;;11.50;74.58;99947.16;346236;28;829;-70
2022/10/23 00:19:28;;;;;;;418.63;263.30;;;;;;;11.52;74.40;99941.84;344562;28;1300;-70
2022/10/23 00:19:39;;;;;;;420.15;272.35;;;;;;;11.51;74.42;99943.63;344458;28;1773;-70
2022/10/23 00:19:49;;;;;;;421.53;281.03;;;;;;;11.51;74.58;99937.53;348354;28;1254;-70
2022/10/23 00:20:00;;;;;;;421.67;276.83;;;;;;;11.49;74.36;99937.56;347331;28;1921;-70
2022/10/23 00:20:10;;;;;;;420.40;267.27;;;;;;;11.51;74.31;99940.13;348736;28;1330;-70
2022/10/23 00:20:21;;;;;;;419.17;266.17;;;;;;;11.50;74.50;99941.06;345967;28;1686;-70
2022/10/23 00:20:31;;;;;;;419.20;267.97;;;;;;;11.49;74.29;99937.56;347482;28;947;-71
2022/10/23 00:20:41;;;;;;;419.80;274.13;;;;;;;11.48;74.51;99933.25;343004;28;1344;-71
2022/10/23 00:20:52;;;;;;;420.67;273.30;;;;;;;11.48;74.65;99935.88;343396;28;1614;-71
2022/10/23 00:21:03;;;;;;;418.63;272.90;;;;;;;11.47;74.55;99926.31;343326;28;1367;-71
2022/10/23 00:21:14;;;;;;;418.20;262.65;;;;;;;11.49;74.57;99929.72;341728;28;1373;-71
2022/10/23 00:21:24;;;;;;;417.80;259.77;;;;;;;11.49;74.45;99927.09;338350;29;1515;-71
2022/10/23 00:21:35;;;;;;;419.63;261.30;;;;;;;11.51;74.62;99927.03;335365;29;1565;-71
2022/10/23 00:21:45;;;;;;;420.83;265.73;;;;;;;11.52;74.37;99929.59;337506;29;1807;-71
2022/10/23 00:21:55;;;;;;;417.23;262.27;;;;;;;11.52;74.43;99920.88;336805;29;1071;-71
2022/10/23 00:22:07;;;;;;;416.93;261.50;;;;;;;11.53;74.43;99928.69;336740;29;919;-71
2022/10/23 00:22:17;;;;;;;417.25;261.45;;;;;;;11.52;74.13;99929.59;336902;29;886;-71
2022/10/23 00:22:28;;;;;;;419.55;262.10;;;;;;;11.54;74.43;99929.53;336652;29;1475;-71
2022/10/23 00:22:38;;;;;;;421.37;272.13;;;;;;;11.53;74.27;99933.94;337629;29;1402;-71
2022/10/23 00:22:49;;;;;;;420.17;276.92;;;;;;;11.52;74.52;99932.22;339559;29;902;-71
2022/10/23 00:22:59;;;;;;;419.90;277.13;;;;;;;11.52;74.40;99932.22;337854;29;1887;-71
2022/10/23 00:23:09;;;;;;;419.20;273.07;;;;;;;11.52;74.38;99941.84;334438;29;2083;-71
2022/10/23 00:23:20;;;;;;;419.52;266.65;;;;;;;11.50;74.33;99928.81;331465;29;2023;-71
2022/10/23 00:23:30;;;;;;;419.40;260.80;;;;;;;11.51;74.54;99932.28;329630;29;1645;-71
2022/10/23 00:23:41;;;;;;;421.10;260.55;;;;;;;11.49;74.46;99937.56;328474;30;2217;-71
2022/10/23 00:23:51;;;;;;;422.40;266.27;;;;;;;11.47;74.70;99939.41;329341;29;1619;-71
2022/10/23 00:24:01;;;;;;;423.70;266.50;;;;;;;11.48;74.74;99938.50;328144;30;896;-71
2022/10/23 00:24:12;;;;;;;422.60;260.93;;;;;;;11.47;74.87;99942.03;328885;30;887;-70
2022/10/23 00:24:22;;;;;;;420.35;259.77;;;;;;;11.46;74.79;99932.44;330077;29;1960;-70
2022/10/23 00:24:33;;;;;;;418.17;261.20;;;;;;;11.44;74.74;99942.16;325593;30;4473;-70
2022/10/23 00:24:43;;;;;;;418.00;272.35;;;;;;;11.44;74.95;99939.53;320804;30;7956;-70
2022/10/23 00:24:53;;;;;;;419.77;273.37;;;;;;;11.44;74.63;99934.28;322369;30;2737;-70
2022/10/23 00:25:05;;;;;;;424.23;286.43;;;;;;;11.42;74.91;99933.50;325777;30;2705;-70
2022/10/23 00:25:15;;;;;;;424.67;277.63;;;;;;;11.42;74.81;99930.88;319506;30;3700;-71
2022/10/23 00:25:26;;;;;;;423.10;273.70;;;;;;;11.42;74.91;99936.09;320886;30;2514;-71
2022/10/23 00:25:37;;;;;;;420.50;261.90;;;;;;;11.43;74.82;99936.97;322371;30;2711;-71
2022/10/23 00:25:48;;;;;;;422.60;263.58;;;;;;;11.44;74.78;99929.03;324371;30;1330;-71
2022/10/23 00:25:59;;;;;;;422.47;263.53;;;;;;;11.43;74.67;99929.97;322917;30;2703;-71
2022/10/23 00:26:13;;;;;;;423.95;272.15;;;;;;;11.46;74.72;99932.44;322346;30;1544;-71
2022/10/23 00:26:24;;;;;;;421.05;269.42;;;;;;;11.46;74.73;99929.84;321382;30;2394;-71
2022/10/23 00:26:34;;;;;;;420.83;266.23;;;;;;;11.46;74.60;99929.84;321232;30;1075;-71
2022/10/23 00:26:45;;;;;;;420.02;269.40;;;;;;;11.47;74.75;99921.06;318573;30;1354;-71
2022/10/23 00:26:55;;;;;;;421.40;273.80;;;;;;;11.48;74.58;99925.38;317218;31;2154;-71
2022/10/23 00:27:05;;;;;;;422.02;274.35;;;;;;;11.47;74.79;99923.69;312770;31;2922;-71
2022/10/23 00:27:16;;;;;;;422.83;274.63;;;;;;;11.47;74.51;99921.06;315089;31;1809;-71
2022/10/23 00:27:26;;;;;;;422.30;271.58;;;;;;;11.47;74.60;99931.53;317944;30;3242;-71
2022/10/23 00:27:36;;;;;;;422.97;278.67;;;;;;;11.46;74.47;99931.59;318554;30;3111;-71
2022/10/23 00:27:47;;;;;;;422.77;284.83;;;;;;;11.46;74.62;99919.34;319680;30;918;-71
2022/10/23 00:27:57;;;;;;;422.03;288.43;;;;;;;11.46;74.67;99919.34;317772;31;3334;-71
2022/10/23 00:28:08;;;;;;;419.17;281.65;;;;;;;11.46;74.61;99929.84;312884;31;3277;-71
2022/10/23 00:28:18;;;;;;;418.27;276.10;;;;;;;11.47;74.84;99918.44;313722;31;1583;-71
2022/10/23 00:28:29;;;;;;;416.43;266.03;;;;;;;11.49;74.97;99916.59;309274;31;1917;-71
2022/10/23 00:28:39;;;;;;;418.25;268.98;;;;;;;11.50;75.04;99922.72;312977;31;2181;-71
2022/10/23 00:28:51;;;;;;;422.10;270.90;;;;;;;11.51;74.64;99920.03;312631;31;1866;-71
2022/10/23 00:29:01;;;;;;;423.85;273.02;;;;;;;11.50;74.43;99923.56;308505;32;938;-71
2022/10/23 00:29:12;;;;;;;422.70;267.03;;;;;;;11.51;74.68;99920.03;308018;31;3130;-71
2022/10/23 00:29:23;;;;;;;421.43;268.47;;;;;;;11.49;74.74;99919.22;309447;31;4231;-71
2022/10/23 00:29:33;;;;;;;422.83;277.20;;;;;;;11.47;74.54;99926.31;313709;31;1652;-71
2022/10/23 00:29:44;;;;;;;423.58;280.38;;;;;;;11.48;74.64;99920.16;310929;31;4732;-71
2022/10/23 00:29:54;;;;;;;421.75;281.58;;;;;;;11.45;74.52;99930.75;306392;32;4532;-71
2022/10/23 00:30:05;;;;;;;418.17;276.03;;;;;;;11.44;74.73;99934.28;306135;32;4165;-71
2022/10/23 00:30:15;;;;;;;418.30;275.55;;;;;;;11.45;74.87;99928.13;303271;32;2159;-71
2022/10/23 00:30:26;;;;;;;418.92;272.02;;;;;;;11.45;74.55;99933.38;305555;32;4215;-71
2022/10/23 00:30:36;;;;;;;417.70;266.73;;;;;;;11.43;74.80;99931.72;306103;32;2530;-71
2022/10/23 00:30:47;;;;;;;419.73;271.77;;;;;;;11.42;74.64;99930.88;306283;32;1198;-71
2022/10/23 00:30:59;;;;;;;417.75;268.60;;;;;;;11.40;74.95;99926.59;302450;32;3039;-71
2022/10/23 00:31:10;;;;;;;417.85;266.48;;;;;;;11.39;74.72;99927.50;302352;32;4038;-71
2022/10/23 00:31:21;;;;;;;417.47;264.83;;;;;;;11.39;74.84;99925.75;300682;32;4314;-71
2022/10/23 00:31:31;;;;;;;420.07;272.17;;;;;;;11.41;75.03;99923.91;300042;32;1117;-71
2022/10/23 00:31:42;;;;;;;422.10;278.35;;;;;;;11.42;74.76;99930.88;298783;32;5659;-71
2022/10/23 00:31:52;;;;;;;422.90;280.43;;;;;;;11.41;74.86;99929.16;300111;32;6572;-71
2022/10/23 00:32:03;;;;;;;419.40;272.88;;;;;;;11.42;74.83;99930.00;302280;32;1920;-71
2022/10/23 00:32:13;;;;;;;418.67;264.43;;;;;;;11.41;74.93;99925.69;297279;32;7033;-71
2022/10/23 00:32:24;;;;;;;417.27;265.15;;;;;;;11.42;74.87;99930.88;297010;32;5924;-71
2022/10/23 00:32:34;;;;;;;421.20;271.40;;;;;;;11.42;74.74;99930.00;300117;32;865;-71
2022/10/23 00:32:44;;;;;;;421.10;278.48;;;;;;;11.41;75.00;99934.41;296241;33;6064;-71
2022/10/23 00:32:55;;;;;;;422.43;280.23;;;;;;;11.40;74.98;99922.22;294212;33;4084;-71
2022/10/23 00:33:05;;;;;;;422.10;276.13;;;;;;;11.41;74.93;99929.16;291240;33;5365;-71
2022/10/23 00:33:16;;;;;;;421.83;279.40;;;;;;;11.39;74.92;99931.00;291085;34;1187;-72
2022/10/23 00:33:26;;;;;;;421.88;282.70;;;;;;;11.41;74.83;99928.31;286660;34;5960;-71
2022/10/23 00:33:36;;;;;;;420.10;281.43;;;;;;;11.39;74.86;99928.38;286181;33;6006;-71
2022/10/23 00:33:47;;;;;;;419.25;277.08;;;;;;;11.39;74.92;99931.00;288437;34;5784;-71
2022/10/23 00:33:57;;;;;;;422.17;278.17;;;;;;;11.39;75.01;99928.38;285575;34;8607;-71
2022/10/23 00:34:08;;;;;;;424.90;280.27;;;;;;;11.39;74.80;99931.00;284538;34;8855;-71
2022/10/23 00:34:18;;;;;;;426.17;279.83;;;;;;;11.39;74.96;99936.22;284620;34;1833;-71
2022/10/23 00:34:29;;;;;;;422.88;277.48;;;;;;;11.38;75.19;99931.91;281030;34;9003;-71
2022/10/23 00:34:39;;;;;;;421.53;279.47;;;;;;;11.36;74.83;99930.25;280900;34;8632;-71
2022/10/23 00:34:49;;;;;;;421.90;276.65;;;;;;;11.34;75.06;99925.91;281797;35;1241;-71
2022/10/23 00:35:00;;;;;;;423.27;274.53;;;;;;;11.34;74.82;99928.53;275025;35;2099;-71
2022/10/23 00:35:10;;;;;;;424.27;275.65;;;;;;;11.35;74.93;99934.63;274267;35;4946;-71
2022/10/23 00:36:57;;;;;;;407.31;241.07;;;;;;;11.36;74.89;99933.72;2494212;27;20776;-71
2022/10/23 00:37:08;;;;;;;420.60;270.57;;;;;;;11.34;75.00;99939.03;352749;28;1400;-71
2022/10/23 00:37:18;;;;;;;420.77;272.25;;;;;;;11.33;75.05;99931.22;350633;28;816;-71
2022/10/23 00:37:29;;;;;;;419.27;268.50;;;;;;;11.32;74.89;99927.75;348938;28;936;-70
2022/10/23 00:37:39;;;;;;;426.88;269.45;;;;;;;11.34;75.09;99932.94;348907;28;1324;-70
2022/10/23 00:37:49;;;;;;;427.27;269.40;;;;;;;11.33;75.01;99928.59;348925;28;911;-70
2022/10/23 00:38:00;;;;;;;424.83;264.45;;;;;;;11.32;74.92;99930.38;350281;28;1254;-70
2022/10/23 00:38:10;;;;;;;421.00;264.83;;;;;;;11.34;74.93;99925.06;350423;28;1054;-70
2022/10/23 00:38:20;;;;;;;422.45;268.30;;;;;;;11.32;74.98;99924.28;350171;28;1194;-70
2022/10/23 00:38:31;;;;;;;421.20;270.47;;;;;;;11.33;75.08;99925.97;348998;28;1245;-70
2022/10/23 00:38:41;;;;;;;419.33;270.63;;;;;;;11.37;74.77;99922.31;346233;28;880;-70
2022/10/23 00:38:52;;;;;;;420.88;267.73;;;;;;;11.38;74.67;99924.03;347487;28;1859;-70
2022/10/23 00:39:03;;;;;;;422.70;269.37;;;;;;;11.40;74.94;99927.44;347499;28;1490;-70
2022/10/23 00:39:13;;;;;;;422.42;270.27;;;;;;;11.41;74.74;99926.53;347130;28;2091;-70
2022/10/23 00:39:23;;;;;;;422.02;264.95;;;;;;;11.42;74.70;99915.16;346141;28;1053;-70
2022/10/23 00:39:34;;;;;;;421.63;261.13;;;;;;;11.42;74.66;99925.63;347776;28;1572;-70
2022/10/23 00:39:44;;;;;;;418.35;250.07;;;;;;;11.42;74.45;99924.78;345997;28;1236;-70
2022/10/23 00:39:54;;;;;;;416.33;251.10;;;;;;;11.42;74.46;99930.88;348274;28;877;-70
2022/10/23 00:40:06;;;;;;;418.05;265.33;;;;;;;11.39;74.55;99920.50;348925;28;1236;-70
2022/10/23 00:40:16;;;;;;;420.52;272.90;;;;;;;11.38;74.76;99924.03;347534;28;1251;-70
2022/10/23 00:40:26;;;;;;;421.73;270.80;;;;;;;11.37;74.59;99922.31;349768;28;1937;-70
2022/10/23 00:40:37;;;;;;;421.55;266.48;;;;;;;11.37;74.77;99929.34;348822;28;939;-70
2022/10/23 00:40:48;;;;;;;420.63;268.48;;;;;;;11.35;74.71;99926.78;344669;28;1471;-70
2022/10/23 00:40:58;;;;;;;419.73;270.83;;;;;;;11.34;74.88;99918.06;346050;28;1160;-70
2022/10/23 00:41:09;;;;;;;422.47;274.17;;;;;;;11.32;75.09;99926.88;345648;28;1255;-70
2022/10/23 00:41:27;;;;;;;422.85;266.13;;;;;;;11.29;75.15;99933.09;345028;28;1195;-70
2022/10/23 00:41:38;;;;;;;421.08;260.30;;;;;;;11.28;74.93;99926.16;349764;28;919;-70
2022/10/23 00:41:48;;;;;;;421.73;269.97;;;;;;;11.28;75.03;99930.53;346213;28;935;-70
2022/10/23 00:41:58;;;;;;;417.33;267.88;;;;;;;11.28;74.91;99927.91;344724;28;1468;-70
2022/10/23 00:42:16;;;;;;;417.87;271.43;;;;;;;11.28;75.03;99934.00;344829;28;1376;-70
2022/10/23 00:42:26;;;;;;;422.33;266.77;;;;;;;11.31;75.21;99933.03;343351;28;928;-70
2022/10/23 00:42:36;;;;;;;422.50;262.37;;;;;;;11.30;74.88;99926.09;343224;28;1405;-70
2022/10/23 00:42:47;;;;;;;423.27;268.13;;;;;;;11.29;74.88;99930.47;343413;28;1189;-70
2022/10/23 00:42:57;;;;;;;423.33;262.07;;;;;;;11.29;75.39;99929.63;343893;28;4470;-70
2022/10/23 00:43:22;;;;;;;421.97;262.40;;;;;;;11.28;75.16;99930.53;345041;28;5131;-70
2022/10/23 00:43:33;;;;;;;419.35;266.05;;;;;;;11.26;74.94;99935.03;344710;28;1969;-70
2022/10/23 00:43:56;;;;;;;419.98;264.17;;;;;;;11.27;75.06;99936.69;343323;28;1826;-70
2022/10/23 00:44:30;;;;;;;425.70;279.50;;;;;;;11.29;74.92;99940.09;338301;29;1392;-70
2022/10/23 00:44:40;;;;;;;423.52;272.13;;;;;;;11.27;75.12;99939.31;338266;29;2096;-70
2022/10/23 00:44:50;;;;;;;420.30;269.77;;;;;;;11.27;75.00;99936.69;337873;29;1692;-70
2022/10/23 00:45:19;;;;;;;416.50;262.60;;;;;;;11.26;74.99;99935.03;336827;29;2175;-70
2022/10/23 00:45:32;;;;;;;421.73;269.52;;;;;;;11.26;75.14;99938.47;331792;29;879;-70
2022/10/23 00:45:42;;;;;;;417.52;259.80;;;;;;;11.27;75.11;99941.94;335118;29;1537;-70
2022/10/23 00:45:53;;;;;;;423.00;265.23;;;;;;;11.26;75.44;99940.25;335385;29;1951;-70
2022/10/23 00:46:03;;;;;;;422.50;266.80;;;;;;;11.26;74.68;99937.63;336036;29;2073;-70
2022/10/23 00:46:13;;;;;;;424.07;273.07;;;;;;;11.26;74.80;99940.25;333255;29;1413;-70
2022/10/23 00:46:24;;;;;;;422.33;277.17;;;;;;;11.27;74.64;99940.16;334111;29;1256;-70
2022/10/23 00:46:35;;;;;;;419.63;269.53;;;;;;;11.28;74.68;99941.03;332206;29;1918;-70
2022/10/23 00:46:45;;;;;;;421.20;271.42;;;;;;;11.28;74.83;99934.00;331276;29;2689;-70
2022/10/23 00:46:57;;;;;;;427.20;284.30;;;;;;;11.30;74.68;99936.56;335270;29;1917;-70
2022/10/23 00:47:07;;;;;;;428.33;294.30;;;;;;;11.31;74.82;99939.13;332418;29;1864;-70
2022/10/23 00:47:17;;;;;;;424.88;289.50;;;;;;;11.32;74.85;99937.38;333732;29;2154;-70
2022/10/23 00:47:28;;;;;;;420.20;281.37;;;;;;;11.33;74.48;99937.31;330494;29;1329;-70
2022/10/23 00:47:38;;;;;;;418.45;271.27;;;;;;;11.35;74.58;99939.88;331074;29;2032;-70
2022/10/23 00:47:49;;;;;;;421.87;275.63;;;;;;;11.33;74.50;99942.56;328908;29;2201;-70
2022/10/23 00:48:00;;;;;;;426.38;287.50;;;;;;;11.33;74.57;99942.56;328106;30;867;-70
2022/10/23 00:48:10;;;;;;;428.02;291.35;;;;;;;11.33;74.43;99937.31;329687;29;1949;-70
2022/10/23 00:48:21;;;;;;;422.70;275.13;;;;;;;11.33;74.39;99934.69;331597;29;910;-70
2022/10/23 00:48:31;;;;;;;423.15;268.50;;;;;;;11.33;74.47;99932.06;331112;29;2006;-70
2022/10/23 00:48:41;;;;;;;423.23;269.13;;;;;;;11.35;74.29;99934.63;328521;30;1063;-70
2022/10/23 00:48:52;;;;;;;426.10;281.65;;;;;;;11.34;74.27;99931.16;332177;29;1783;-70
2022/10/23 00:49:03;;;;;;;424.47;279.57;;;;;;;11.36;74.47;99931.09;331812;29;1990;-70
2022/10/23 00:49:13;;;;;;;423.45;282.17;;;;;;;11.36;74.51;99931.09;329324;29;1301;-70
2022/10/23 00:49:24;;;;;;;425.45;282.20;;;;;;;11.37;74.06;99922.31;327032;30;2482;-70
2022/10/23 00:49:34;;;;;;;424.20;284.20;;;;;;;11.37;74.02;99927.56;327306;30;2632;-70
2022/10/23 00:49:45;;;;;;;423.00;284.30;;;;;;;11.37;73.89;99919.72;325645;30;930;-70
2022/10/23 00:49:55;;;;;;;418.93;281.87;;;;;;;11.37;74.27;99927.56;323884;30;2827;-70
2022/10/23 00:50:06;;;;;;;418.30;279.00;;;;;;;11.35;74.40;99924.16;324056;30;2985;-70
2022/10/23 00:50:16;;;;;;;418.85;268.98;;;;;;;11.35;74.37;99929.41;326612;30;1438;-70
2022/10/23 00:50:28;;;;;;;419.27;264.23;;;;;;;11.37;74.49;99927.56;321936;30;1736;-70
2022/10/23 00:50:39;;;;;;;419.15;264.52;;;;;;;11.36;74.12;99920.63;320731;30;1135;-70
2022/10/23 00:50:49;;;;;;;419.25;267.33;;;;;;;11.35;74.30;99916.28;317644;30;2006;-70
2022/10/23 00:51:00;;;;;;;422.60;272.37;;;;;;;11.36;74.30;99915.38;320866;30;913;-70
2022/10/23 00:51:10;;;;;;;423.95;271.58;;;;;;;11.38;74.30;99917.94;319126;30;2536;-70
2022/10/23 00:51:20;;;;;;;425.37;271.93;;;;;;;11.38;74.38;99921.41;318429;30;3570;-70
2022/10/23 00:51:37;;;;;;;423.25;269.95;;;;;;;11.38;74.61;99918.78;316334;31;909;-70
2022/10/23 00:51:49;;;;;;;417.10;260.92;;;;;;;11.36;74.27;99918.00;314650;31;3326;-70
2022/10/23 00:52:05;;;;;;;416.73;260.00;;;;;;;11.36;74.39;99917.16;315208;31;850;-70
2022/10/23 00:52:16;;;;;;;417.63;269.15;;;;;;;11.36;74.07;99914.53;310583;31;6383;-70
2022/10/23 00:52:26;;;;;;;419.63;272.20;;;;;;;11.37;73.92;99917.09;309774;31;4169;-70
2022/10/23 00:52:40;;;;;;;420.63;270.38;;;;;;;11.38;74.14;99910.06;310634;31;2532;-70
2022/10/23 00:52:51;;;;;;;418.16;265.40;;;;;;;11.39;73.61;99910.03;309453;31;2345;-70
2022/10/23 00:53:02;;;;;;;416.13;261.48;;;;;;;11.40;74.20;99906.50;304540;32;3179;-70
2022/10/23 00:53:12;;;;;;;417.45;266.73;;;;;;;11.41;74.13;99908.19;300484;32;2267;-71
2022/10/23 00:53:23;;;;;;;419.73;275.63;;;;;;;11.42;74.17;99920.38;303374;31;3671;-70
2022/10/23 00:53:33;;;;;;;422.60;288.25;;;;;;;11.43;74.48;99913.38;301775;31;3916;-70
2022/10/23 00:53:44;;;;;;;420.73;282.67;;;;;;;11.41;74.45;99916.06;306502;32;954;-70
2022/10/23 00:53:56;;;;;;;420.15;274.17;;;;;;;11.39;74.04;99910.03;303899;32;4582;-70
2022/10/23 00:54:06;;;;;;;421.40;266.58;;;;;;;11.39;73.88;99920.50;302018;32;4674;-70
2022/10/23 00:54:18;;;;;;;424.23;273.23;;;;;;;11.38;73.76;99921.41;303653;32;4382;-71
2022/10/23 00:54:32;;;;;;;421.77;275.10;;;;;;;11.39;73.83;99919.66;304300;32;959;-71
2022/10/23 00:54:42;;;;;;;415.60;271.73;;;;;;;11.39;73.56;99924.88;301119;32;1146;-71
2022/10/23 00:54:52;;;;;;;418.33;272.03;;;;;;;11.38;73.71;99929.28;299208;32;3435;-71